Time;durP1;ratioP1;P1;durP2;ratioP2;P2;SDS_P1;SDS_P2;PMS_P1;PMS_P2;Temp;Humidity;BMP_temperature;BMP_pressure;BME280_temperature;BME280_humidity;BME280_pressure;Samples;Min_cycle;Max_cycle;Signal;HPM_P1;HPM_P2
2023/11/02 00:00:35;;;;;;;2.57;1.93;;;;;;;;;;5061227;28;20281;-55
2023/11/02 00:03:05;;;;;;;2.90;1.70;;;;;;;;;;5056540;28;20165;-56
2023/11/02 00:05:44;;;;;;;2.30;2.10;;;;;;;;;;5060010;28;20184;-55
2023/11/02 00:08:10;;;;;;;1.80;1.47;;;;;;;;;;5067636;28;20191;-55
2023/11/02 00:10:38;;;;;;;2.10;1.90;;;;;;;;;;5068579;28;20175;-55
2023/11/02 00:13:05;;;;;;;6.80;1.83;;;;;;;;;;5057426;28;20185;-55
2023/11/02 00:15:31;;;;;;;2.40;1.80;;;;;;;;;;5057851;28;20223;-56
2023/11/02 00:18:01;;;;;;;2.03;1.90;;;;;;;;;;5051575;28;20264;-57
2023/11/02 00:20:31;;;;;;;2.57;1.50;;;;;;;;;;5068113;28;20663;-55
2023/11/02 00:22:59;;;;;;;2.23;1.67;;;;;;;;;;5059115;28;20170;-55
2023/11/02 00:25:44;;;;;;;1.80;1.70;;;;;;;;;;5051355;28;20610;-55
2023/11/02 00:28:11;;;;;;;2.40;1.83;;;;;;;;;;5048674;28;20169;-55
2023/11/02 00:30:44;;;;;;;2.07;1.60;;;;;;;;;;5061404;28;20225;-55
2023/11/02 00:33:10;;;;;;;1.73;1.63;;;;;;;;;;5064760;28;20225;-56
2023/11/02 00:35:42;;;;;;;1.87;1.47;;;;;;;;;;5063475;28;20191;-55
2023/11/02 00:38:08;;;;;;;3.03;1.70;;;;;;;;;;5067649;28;20675;-55
2023/11/02 00:40:34;;;;;;;1.73;1.63;;;;;;;;;;5068598;28;20180;-55
2023/11/02 00:43:00;;;;;;;1.17;1.13;;;;;;;;;;5068118;28;20177;-55
2023/11/02 00:45:26;;;;;;;2.67;1.50;;;;;;;;;;5062101;28;20200;-55
2023/11/02 00:47:52;;;;;;;2.30;2.10;;;;;;;;;;5067132;28;20196;-55
2023/11/02 00:50:41;;;;;;;1.60;1.50;;;;;;;;;;5062870;28;20209;-55
2023/11/02 00:53:07;;;;;;;2.00;1.77;;;;;;;;;;5066967;28;20184;-56
2023/11/02 00:55:34;;;;;;;2.60;1.53;;;;;;;;;;5066437;28;20252;-55
2023/11/02 00:58:05;;;;;;;3.10;1.60;;;;;;;;;;5067754;28;20239;-55
2023/11/02 01:00:53;;;;;;;2.63;1.60;;;;;;;;;;5061873;28;20311;-56
2023/11/02 01:03:22;;;;;;;1.60;1.50;;;;;;;;;;5064841;28;20661;-55
2023/11/02 01:05:51;;;;;;;2.13;1.70;;;;;;;;;;5067617;28;20180;-55
2023/11/02 01:08:17;;;;;;;3.93;1.73;;;;;;;;;;5066418;28;20180;-55
2023/11/02 01:10:44;;;;;;;1.53;1.43;;;;;;;;;;5066157;28;20504;-55
2023/11/02 01:13:14;;;;;;;2.00;1.90;;;;;;;;;;5068115;28;20544;-56
2023/11/02 01:15:43;;;;;;;3.30;1.40;;;;;;;;;;5060423;28;20223;-55
2023/11/02 01:18:10;;;;;;;1.97;1.50;;;;;;;;;;5046846;28;20284;-56
2023/11/02 01:20:55;;;;;;;2.60;1.63;;;;;;;;;;5059143;28;20212;-56
2023/11/02 01:23:24;;;;;;;1.97;1.60;;;;;;;;;;5066461;28;20176;-55
2023/11/02 01:25:50;;;;;;;2.63;1.33;;;;;;;;;;5065837;28;20902;-55
2023/11/02 01:28:17;;;;;;;3.67;1.60;;;;;;;;;;5064906;28;20195;-56
2023/11/02 01:30:43;;;;;;;2.97;1.70;;;;;;;;;;5059681;28;20571;-56
2023/11/02 01:33:28;;;;;;;2.10;1.50;;;;;;;;;;5070877;28;20257;-56
2023/11/02 01:35:55;;;;;;;1.93;1.40;;;;;;;;;;5071714;28;20608;-56
2023/11/02 01:38:23;;;;;;;1.70;1.60;;;;;;;;;;5075831;28;20176;-56
2023/11/02 01:40:58;;;;;;;2.33;1.60;;;;;;;;;;5069855;28;20569;-55
2023/11/02 01:43:29;;;;;;;2.40;1.47;;;;;;;;;;5071462;28;20194;-56
2023/11/02 01:45:57;;;;;;;2.30;1.50;;;;;;;;;;5058971;28;20355;-55
2023/11/02 01:48:28;;;;;;;2.03;1.40;;;;;;;;;;5069944;28;20253;-56
2023/11/02 01:50:54;;;;;;;3.70;1.63;;;;;;;;;;5071814;28;20245;-55
2023/11/02 01:53:39;;;;;;;2.27;1.40;;;;;;;;;;5070456;28;20772;-55
2023/11/02 01:56:16;;;;;;;2.57;1.63;;;;;;;;;;5064227;28;20260;-55
2023/11/02 01:58:52;;;;;;;1.63;1.30;;;;;;;;;;5069988;28;20207;-56
2023/11/02 02:01:49;;;;;;;1.70;1.40;;;;;;;;;;5062412;28;20199;-55
2023/11/02 02:04:27;;;;;;;3.03;2.13;;;;;;;;;;5050645;28;20188;-55
2023/11/02 02:07:05;;;;;;;2.80;1.50;;;;;;;;;;5050960;28;20231;-56
2023/11/02 02:09:34;;;;;;;2.80;1.80;;;;;;;;;;5066960;28;20226;-55
2023/11/02 02:12:06;;;;;;;3.40;1.73;;;;;;;;;;5062395;28;20188;-56
2023/11/02 02:14:32;;;;;;;4.07;1.33;;;;;;;;;;5068408;28;20720;-56
2023/11/02 02:16:58;;;;;;;2.03;1.73;;;;;;;;;;5068407;28;20243;-56
2023/11/02 02:19:40;;;;;;;1.47;1.30;;;;;;;;;;5070036;28;20641;-55
2023/11/02 02:22:07;;;;;;;3.07;1.80;;;;;;;;;;5085574;28;20492;-56
2023/11/02 02:24:44;;;;;;;3.50;1.60;;;;;;;;;;5068587;28;20260;-57
2023/11/02 02:27:19;;;;;;;2.63;1.57;;;;;;;;;;5050818;28;20290;-57
2023/11/02 02:29:48;;;;;;;1.53;1.43;;;;;;;;;;5055924;28;20585;-57
2023/11/02 02:32:17;;;;;;;3.80;1.47;;;;;;;;;;5065321;28;20627;-58
2023/11/02 02:34:55;;;;;;;2.50;1.70;;;;;;;;;;5070611;28;20604;-57
2023/11/02 02:37:27;;;;;;;2.90;1.53;;;;;;;;;;5069950;28;20204;-57
2023/11/02 02:39:55;;;;;;;1.77;1.50;;;;;;;;;;5066396;28;20488;-57
2023/11/02 02:42:22;;;;;;;3.40;2.03;;;;;;;;;;5056888;28;20533;-57
2023/11/02 02:44:49;;;;;;;2.03;1.60;;;;;;;;;;5053800;28;20572;-57
2023/11/02 02:47:17;;;;;;;1.83;1.27;;;;;;;;;;5067394;28;20529;-57
2023/11/02 02:49:51;;;;;;;2.63;1.30;;;;;;;;;;5069082;28;20188;-57
2023/11/02 02:52:21;;;;;;;1.67;1.40;;;;;;;;;;5060006;28;20188;-58
2023/11/02 02:54:50;;;;;;;1.50;1.40;;;;;;;;;;5069588;28;20194;-60
2023/11/02 02:57:17;;;;;;;2.27;1.77;;;;;;;;;;5070291;28;20680;-58
2023/11/02 02:59:48;;;;;;;2.07;1.60;;;;;;;;;;5056082;28;20675;-57
2023/11/02 03:02:15;;;;;;;1.60;1.50;;;;;;;;;;5056894;28;20653;-57
2023/11/02 03:04:42;;;;;;;2.00;1.67;;;;;;;;;;5064377;28;20272;-57
2023/11/02 03:07:08;;;;;;;2.10;1.67;;;;;;;;;;5069278;28;20499;-57
2023/11/02 03:09:37;;;;;;;1.77;1.50;;;;;;;;;;5069441;28;20192;-57
2023/11/02 03:12:05;;;;;;;4.43;1.67;;;;;;;;;;5060411;28;20200;-57
2023/11/02 03:14:34;;;;;;;1.60;1.50;;;;;;;;;;5059282;28;20233;-57
2023/11/02 03:17:07;;;;;;;2.57;1.50;;;;;;;;;;5066355;28;20215;-57
2023/11/02 03:19:36;;;;;;;2.37;1.80;;;;;;;;;;5068367;28;20193;-57
2023/11/02 03:22:04;;;;;;;2.17;1.70;;;;;;;;;;5068032;28;20630;-57
2023/11/02 03:24:36;;;;;;;1.90;1.70;;;;;;;;;;5067333;28;20667;-57
2023/11/02 03:27:06;;;;;;;1.60;1.50;;;;;;;;;;5058653;28;20180;-57
2023/11/02 03:29:38;;;;;;;2.83;1.60;;;;;;;;;;5067443;28;20501;-57
2023/11/02 03:32:04;;;;;;;1.73;1.53;;;;;;;;;;5058430;28;20251;-57
2023/11/02 03:34:46;;;;;;;4.93;2.07;;;;;;;;;;5053450;28;20530;-57
2023/11/02 03:37:20;;;;;;;2.60;1.60;;;;;;;;;;5083956;28;20254;-55
2023/11/02 03:40:09;;;;;;;1.83;1.70;;;;;;;;;;5065701;28;20268;-56
2023/11/02 03:42:40;;;;;;;2.23;2.03;;;;;;;;;;5062857;28;20648;-56
2023/11/02 03:45:19;;;;;;;3.53;1.87;;;;;;;;;;5063237;28;20182;-55
2023/11/02 03:47:59;;;;;;;2.70;1.40;;;;;;;;;;5066883;28;20208;-56
2023/11/02 03:50:37;;;;;;;2.20;1.63;;;;;;;;;;5069182;28;20188;-55
2023/11/02 03:53:11;;;;;;;2.30;1.83;;;;;;;;;;5062966;28;20180;-56
2023/11/02 03:55:44;;;;;;;2.37;1.80;;;;;;;;;;5066898;28;20183;-55
2023/11/02 03:58:13;;;;;;;4.07;2.10;;;;;;;;;;5048527;28;20300;-55
2023/11/02 04:00:46;;;;;;;4.07;1.80;;;;;;;;;;5055191;28;20596;-55
2023/11/02 04:03:12;;;;;;;3.43;2.50;;;;;;;;;;5068281;28;20173;-55
2023/11/02 04:05:41;;;;;;;1.53;1.43;;;;;;;;;;5058004;28;20188;-55
2023/11/02 04:08:10;;;;;;;3.90;1.77;;;;;;;;;;5056185;28;20192;-55
2023/11/02 04:10:37;;;;;;;2.07;1.50;;;;;;;;;;5067696;28;20656;-55
2023/11/02 04:13:04;;;;;;;3.07;1.50;;;;;;;;;;5068437;28;20544;-55
2023/11/02 04:15:33;;;;;;;1.83;1.73;;;;;;;;;;5063764;28;20729;-55
2023/11/02 04:17:59;;;;;;;2.20;1.60;;;;;;;;;;5063426;28;20679;-55
2023/11/02 04:20:28;;;;;;;3.67;1.80;;;;;;;;;;5067930;28;20176;-55
2023/11/02 04:22:54;;;;;;;6.13;1.60;;;;;;;;;;5061935;28;20173;-56
2023/11/02 04:25:21;;;;;;;1.90;1.70;;;;;;;;;;5065622;28;20179;-56
2023/11/02 04:27:47;;;;;;;2.03;1.67;;;;;;;;;;5068329;28;20184;-55
2023/11/02 04:30:17;;;;;;;5.27;1.80;;;;;;;;;;5067731;28;20257;-55
2023/11/02 04:32:49;;;;;;;1.70;1.60;;;;;;;;;;5067302;28;20220;-55
2023/11/02 04:35:16;;;;;;;1.83;1.40;;;;;;;;;;5062689;28;20190;-55
2023/11/02 04:37:43;;;;;;;1.67;1.27;;;;;;;;;;5061074;28;20597;-56
2023/11/02 04:40:09;;;;;;;4.53;2.47;;;;;;;;;;5066280;28;20607;-56
2023/11/02 04:42:35;;;;;;;5.07;1.60;;;;;;;;;;5068430;28;20173;-56
2023/11/02 04:45:04;;;;;;;1.57;1.47;;;;;;;;;;5066039;28;20532;-56
2023/11/02 04:47:31;;;;;;;3.33;1.33;;;;;;;;;;5067469;28;20286;-56
2023/11/02 04:50:00;;;;;;;2.50;2.00;;;;;;;;;;5068398;28;20192;-56
2023/11/02 04:52:35;;;;;;;1.80;1.50;;;;;;;;;;5068110;28;20492;-56
2023/11/02 04:55:01;;;;;;;1.50;1.30;;;;;;;;;;5067859;28;20168;-56
2023/11/02 04:57:27;;;;;;;1.60;1.50;;;;;;;;;;5068191;28;20644;-56
2023/11/02 04:59:53;;;;;;;2.47;1.40;;;;;;;;;;5063056;28;20196;-56
2023/11/02 05:02:19;;;;;;;2.37;2.27;;;;;;;;;;5047136;28;20184;-56
2023/11/02 05:04:45;;;;;;;3.80;1.67;;;;;;;;;;5061968;28;20185;-55
2023/11/02 05:07:11;;;;;;;3.70;1.70;;;;;;;;;;5071861;28;20187;-55
2023/11/02 05:09:38;;;;;;;2.33;1.33;;;;;;;;;;5071597;28;20184;-56
2023/11/02 05:12:04;;;;;;;3.80;1.47;;;;;;;;;;5072224;28;20173;-56
2023/11/02 05:14:30;;;;;;;1.40;1.20;;;;;;;;;;5072459;28;20633;-55
2023/11/02 05:16:56;;;;;;;2.57;1.23;;;;;;;;;;5071275;28;20212;-56
2023/11/02 05:19:22;;;;;;;5.33;1.53;;;;;;;;;;5071801;28;20156;-56
2023/11/02 05:21:48;;;;;;;3.10;1.57;;;;;;;;;;5071757;28;20679;-55
2023/11/02 05:24:15;;;;;;;1.90;1.27;;;;;;;;;;5072032;28;20643;-56
2023/11/02 05:26:41;;;;;;;2.13;1.53;;;;;;;;;;5071795;28;20196;-56
2023/11/02 05:29:07;;;;;;;2.67;1.90;;;;;;;;;;5072111;28;20176;-56
2023/11/02 05:31:33;;;;;;;4.73;1.50;;;;;;;;;;5071490;28;20180;-56
2023/11/02 05:33:59;;;;;;;1.47;1.37;;;;;;;;;;5071573;28;20177;-55
2023/11/02 05:36:25;;;;;;;2.90;1.67;;;;;;;;;;5071455;28;20231;-56
2023/11/02 05:38:52;;;;;;;3.57;1.53;;;;;;;;;;5070955;28;20185;-56
2023/11/02 05:41:19;;;;;;;6.53;1.40;;;;;;;;;;5071037;28;20176;-55
2023/11/02 05:43:45;;;;;;;2.30;1.23;;;;;;;;;;5071327;28;20537;-56
2023/11/02 05:46:11;;;;;;;4.70;2.27;;;;;;;;;;5058476;28;20184;-56
2023/11/02 05:48:37;;;;;;;2.80;1.27;;;;;;;;;;5064856;28;20169;-56
2023/11/02 05:51:03;;;;;;;5.67;1.67;;;;;;;;;;5073984;28;20600;-56
2023/11/02 05:53:30;;;;;;;3.70;1.50;;;;;;;;;;5061824;28;20184;-56
2023/11/02 05:55:56;;;;;;;1.50;1.40;;;;;;;;;;5070380;28;20645;-55
2023/11/02 05:58:22;;;;;;;1.33;1.13;;;;;;;;;;5067600;28;20213;-57
2023/11/02 06:00:48;;;;;;;3.30;1.33;;;;;;;;;;5066286;28;20190;-57
2023/11/02 06:03:15;;;;;;;3.87;1.43;;;;;;;;;;5069557;28;20532;-57
2023/11/02 06:05:41;;;;;;;2.10;1.00;;;;;;;;;;5069279;28;20209;-57
2023/11/02 06:08:07;;;;;;;2.03;1.30;;;;;;;;;;5060658;28;20208;-56
2023/11/02 06:10:33;;;;;;;2.73;1.27;;;;;;;;;;5065391;28;20378;-56
2023/11/02 06:12:59;;;;;;;1.53;1.30;;;;;;;;;;5071539;28;20197;-56
2023/11/02 06:15:28;;;;;;;1.50;1.40;;;;;;;;;;5070261;28;20184;-56
2023/11/02 06:17:54;;;;;;;15.13;3.57;;;;;;;;;;5068703;28;20228;-57
2023/11/02 06:20:20;;;;;;;3.43;2.43;;;;;;;;;;5068631;28;20874;-57
2023/11/02 06:22:46;;;;;;;4.30;1.30;;;;;;;;;;5069273;28;20582;-58
2023/11/02 06:25:12;;;;;;;1.63;1.40;;;;;;;;;;5066248;28;20670;-57
2023/11/02 06:27:39;;;;;;;4.20;1.50;;;;;;;;;;5067091;28;20418;-57
2023/11/02 06:30:05;;;;;;;2.37;1.60;;;;;;;;;;5061597;28;20491;-56
2023/11/02 06:32:31;;;;;;;2.40;1.30;;;;;;;;;;5064559;28;20684;-57
2023/11/02 06:34:57;;;;;;;1.17;1.17;;;;;;;;;;5066916;28;20188;-57
2023/11/02 06:37:23;;;;;;;3.37;1.73;;;;;;;;;;5069366;28;20199;-57
2023/11/02 06:39:49;;;;;;;1.33;1.03;;;;;;;;;;5063630;28;20190;-57
2023/11/02 06:42:15;;;;;;;2.47;1.20;;;;;;;;;;5070743;28;20180;-58
2023/11/02 06:44:43;;;;;;;2.00;1.50;;;;;;;;;;5068861;28;20195;-57
2023/11/02 06:47:12;;;;;;;1.20;1.10;;;;;;;;;;5065865;28;20197;-57
2023/11/02 06:49:39;;;;;;;1.20;1.20;;;;;;;;;;5069196;28;20277;-57
2023/11/02 06:52:05;;;;;;;1.73;1.10;;;;;;;;;;5069504;28;20647;-57
2023/11/02 06:54:32;;;;;;;1.53;1.37;;;;;;;;;;5070792;28;20193;-58
2023/11/02 06:56:59;;;;;;;1.87;1.27;;;;;;;;;;5070203;28;20209;-57
2023/11/02 06:59:25;;;;;;;1.53;1.30;;;;;;;;;;5068934;28;20220;-57
2023/11/02 07:01:53;;;;;;;5.10;1.43;;;;;;;;;;5069917;28;20165;-58
2023/11/02 07:04:20;;;;;;;3.27;1.80;;;;;;;;;;5069510;28;20204;-58
2023/11/02 07:06:46;;;;;;;1.20;1.10;;;;;;;;;;5075785;28;20176;-58
2023/11/02 07:09:14;;;;;;;1.93;1.43;;;;;;;;;;5064137;28;20215;-57
2023/11/02 07:11:40;;;;;;;1.27;1.17;;;;;;;;;;5050482;28;20627;-56
2023/11/02 07:14:06;;;;;;;1.50;1.30;;;;;;;;;;5060712;28;20576;-56
2023/11/02 07:16:32;;;;;;;2.23;1.20;;;;;;;;;;5068466;28;20489;-55
2023/11/02 07:19:01;;;;;;;2.27;1.20;;;;;;;;;;5066159;28;20193;-57
2023/11/02 07:21:27;;;;;;;2.23;1.33;;;;;;;;;;5069489;28;20271;-55
2023/11/02 07:23:53;;;;;;;1.27;1.17;;;;;;;;;;5067765;28;20605;-55
2023/11/02 07:26:19;;;;;;;2.77;1.37;;;;;;;;;;5052041;28;20539;-55
2023/11/02 07:28:45;;;;;;;3.30;1.20;;;;;;;;;;5051682;28;20177;-56
2023/11/02 07:31:14;;;;;;;1.97;1.33;;;;;;;;;;5067406;28;20233;-56
2023/11/02 07:33:40;;;;;;;1.63;1.10;;;;;;;;;;5067730;28;20220;-55
2023/11/02 07:36:16;;;;;;;1.27;1.17;;;;;;;;;;5069716;28;20200;-56
2023/11/02 07:38:44;;;;;;;4.50;1.10;;;;;;;;;;5068651;28;20247;-56
2023/11/02 07:41:11;;;;;;;1.97;1.00;;;;;;;;;;5069954;28;20177;-56
2023/11/02 07:43:37;;;;;;;1.63;1.20;;;;;;;;;;5085141;28;20206;-56
2023/11/02 07:46:03;;;;;;;1.37;1.00;;;;;;;;;;5069919;28;20655;-56
2023/11/02 07:48:33;;;;;;;3.17;1.30;;;;;;;;;;5068513;28;20280;-55
2023/11/02 07:50:59;;;;;;;3.50;1.10;;;;;;;;;;5068963;28;20794;-57
2023/11/02 07:53:25;;;;;;;1.20;1.10;;;;;;;;;;5068206;28;20200;-56
2023/11/02 07:55:54;;;;;;;1.70;1.10;;;;;;;;;;5085045;28;20276;-57
2023/11/02 07:58:22;;;;;;;1.00;1.00;;;;;;;;;;5068827;28;20208;-57
2023/11/02 08:00:48;;;;;;;1.23;1.13;;;;;;;;;;5056737;28;20188;-57
2023/11/02 08:03:14;;;;;;;2.30;1.40;;;;;;;;;;5048402;28;20295;-57
2023/11/02 08:05:40;;;;;;;1.33;1.20;;;;;;;;;;5049723;28;20200;-57
2023/11/02 08:08:06;;;;;;;1.90;1.20;;;;;;;;;;5048809;28;20166;-57
2023/11/02 08:10:33;;;;;;;0.90;0.90;;;;;;;;;;5049497;28;20177;-56
2023/11/02 08:13:00;;;;;;;2.07;1.57;;;;;;;;;;5049349;28;20300;-57
2023/11/02 08:15:27;;;;;;;1.20;1.00;;;;;;;;;;5049481;28;20278;-57
2023/11/02 08:17:53;;;;;;;2.93;1.10;;;;;;;;;;5047809;28;20657;-56
2023/11/02 08:20:19;;;;;;;2.67;1.10;;;;;;;;;;5057090;28;20176;-56
2023/11/02 08:22:46;;;;;;;1.33;1.00;;;;;;;;;;5068728;28;20617;-55
2023/11/02 08:25:16;;;;;;;1.87;1.50;;;;;;;;;;5068991;28;20188;-56
2023/11/02 08:27:44;;;;;;;1.20;1.10;;;;;;;;;;5069018;28;20168;-56
2023/11/02 08:30:10;;;;;;;1.50;1.27;;;;;;;;;;5069215;28;20482;-56
2023/11/02 08:32:36;;;;;;;2.53;1.30;;;;;;;;;;5083182;28;20780;-56
2023/11/02 08:35:03;;;;;;;1.40;1.30;;;;;;;;;;5068865;28;20172;-55
2023/11/02 08:37:29;;;;;;;2.27;1.17;;;;;;;;;;5067905;28;20205;-56
2023/11/02 08:39:56;;;;;;;2.33;1.27;;;;;;;;;;5057760;28;20232;-56
2023/11/02 08:42:23;;;;;;;1.13;1.03;;;;;;;;;;5048457;28;20165;-56
2023/11/02 08:44:49;;;;;;;1.60;1.43;;;;;;;;;;5048730;28;20602;-56
2023/11/02 08:47:18;;;;;;;0.97;0.97;;;;;;;;;;5047526;28;20541;-57
2023/11/02 08:49:44;;;;;;;1.10;1.00;;;;;;;;;;5048658;28;20525;-56
2023/11/02 08:52:10;;;;;;;2.13;1.20;;;;;;;;;;5049122;28;20181;-56
2023/11/02 08:54:36;;;;;;;1.33;1.23;;;;;;;;;;5048674;28;20176;-56
2023/11/02 08:57:02;;;;;;;2.70;1.20;;;;;;;;;;5048034;28;20193;-56
2023/11/02 08:59:28;;;;;;;1.80;1.17;;;;;;;;;;5050628;28;20540;-56
2023/11/02 09:01:56;;;;;;;2.10;1.20;;;;;;;;;;5067809;28;20188;-56
2023/11/02 09:04:22;;;;;;;1.30;1.13;;;;;;;;;;5068163;28;20195;-56
2023/11/02 09:06:48;;;;;;;1.93;1.10;;;;;;;;;;5068241;28;20666;-55
2023/11/02 09:09:14;;;;;;;1.70;1.60;;;;;;;;;;5067615;28;20534;-56
2023/11/02 09:11:41;;;;;;;1.37;1.20;;;;;;;;;;5048446;28;20543;-56
2023/11/02 09:14:07;;;;;;;1.40;1.13;;;;;;;;;;5048309;28;20276;-56
2023/11/02 09:16:33;;;;;;;1.43;1.10;;;;;;;;;;5047864;28;20205;-56
2023/11/02 09:18:59;;;;;;;1.80;1.20;;;;;;;;;;5047653;28;20153;-54
2023/11/02 09:21:27;;;;;;;1.60;1.30;;;;;;;;;;5047836;28;20181;-54
2023/11/02 09:23:53;;;;;;;1.37;1.20;;;;;;;;;;5048064;28;20214;-55
2023/11/02 09:26:20;;;;;;;1.30;1.20;;;;;;;;;;5063852;28;20175;-54
2023/11/02 09:28:50;;;;;;;1.10;1.07;;;;;;;;;;5068261;28;20153;-57
2023/11/02 09:31:17;;;;;;;2.00;1.13;;;;;;;;;;5068241;28;20244;-57
2023/11/02 09:33:43;;;;;;;1.50;1.10;;;;;;;;;;5058730;28;20304;-58
2023/11/02 09:36:09;;;;;;;3.03;1.50;;;;;;;;;;5048365;28;20683;-57
2023/11/02 09:38:36;;;;;;;2.03;1.30;;;;;;;;;;5047408;28;20584;-57
2023/11/02 09:41:02;;;;;;;1.33;0.90;;;;;;;;;;5046800;28;20656;-57
2023/11/02 09:43:28;;;;;;;1.53;1.43;;;;;;;;;;5048097;28;20161;-57
2023/11/02 09:45:56;;;;;;;2.10;1.00;;;;;;;;;;5047999;28;20262;-57
2023/11/02 09:48:24;;;;;;;2.00;1.33;;;;;;;;;;5047030;28;20193;-57
2023/11/02 09:50:51;;;;;;;1.87;1.23;;;;;;;;;;5047319;28;20184;-57
2023/11/02 09:53:17;;;;;;;2.43;1.27;;;;;;;;;;5057936;28;20172;-57
2023/11/02 09:55:44;;;;;;;1.57;1.17;;;;;;;;;;5071635;28;20169;-57
2023/11/02 09:58:11;;;;;;;5.03;1.33;;;;;;;;;;5071537;28;20291;-57
2023/11/02 10:00:38;;;;;;;1.20;1.10;;;;;;;;;;5071203;28;20195;-57
2023/11/02 10:03:04;;;;;;;2.13;1.27;;;;;;;;;;5070769;28;20168;-57
2023/11/02 10:05:30;;;;;;;2.17;1.10;;;;;;;;;;5071290;28;20539;-57
2023/11/02 10:07:56;;;;;;;2.70;1.10;;;;;;;;;;5070356;28;20544;-57
2023/11/02 10:10:23;;;;;;;2.30;1.20;;;;;;;;;;5069291;28;20168;-57
2023/11/02 10:12:49;;;;;;;1.73;1.10;;;;;;;;;;5051072;28;20219;-57
2023/11/02 10:15:17;;;;;;;1.40;1.30;;;;;;;;;;5051189;28;20176;-57
2023/11/02 10:17:44;;;;;;;1.83;1.20;;;;;;;;;;5050282;28;20244;-57
2023/11/02 10:20:11;;;;;;;1.50;1.40;;;;;;;;;;5051328;28;20556;-57
2023/11/02 10:22:37;;;;;;;3.03;1.50;;;;;;;;;;5050667;28;20169;-56
2023/11/02 10:25:04;;;;;;;3.57;1.30;;;;;;;;;;5051077;28;20166;-57
2023/11/02 10:27:30;;;;;;;2.30;1.20;;;;;;;;;;5068327;28;20581;-57
2023/11/02 10:29:56;;;;;;;2.47;1.40;;;;;;;;;;5070942;28;20248;-57
2023/11/02 10:32:23;;;;;;;3.43;1.40;;;;;;;;;;5070012;28;20238;-57
2023/11/02 10:34:52;;;;;;;6.23;1.60;;;;;;;;;;5070970;28;20161;-57
2023/11/02 10:37:32;;;;;;;4.87;1.67;;;;;;;;;;5070024;28;20215;-57
2023/11/02 10:39:58;;;;;;;3.43;1.00;;;;;;;;;;5069185;28;20283;-57
2023/11/02 10:42:26;;;;;;;2.20;1.40;;;;;;;;;;5059288;28;20184;-57
2023/11/02 10:44:52;;;;;;;2.53;1.30;;;;;;;;;;5050783;28;20162;-57
2023/11/02 10:47:19;;;;;;;2.17;1.30;;;;;;;;;;5049600;28;20172;-57
2023/11/02 10:49:45;;;;;;;1.60;1.07;;;;;;;;;;5051154;28;20199;-57
2023/11/02 10:52:13;;;;;;;2.27;1.40;;;;;;;;;;5060653;28;20712;-57
2023/11/02 10:54:42;;;;;;;1.30;1.23;;;;;;;;;;5070625;28;20185;-57
2023/11/02 10:57:15;;;;;;;2.40;1.20;;;;;;;;;;5067766;28;20227;-57
2023/11/02 10:59:42;;;;;;;2.13;1.53;;;;;;;;;;5066359;28;20265;-57
2023/11/02 11:02:12;;;;;;;1.57;1.47;;;;;;;;;;5049579;28;20165;-57
2023/11/02 11:04:41;;;;;;;1.90;1.43;;;;;;;;;;5049977;28;20541;-57
2023/11/02 11:07:11;;;;;;;1.90;1.40;;;;;;;;;;5049741;28;20166;-57
2023/11/02 11:09:38;;;;;;;6.13;2.17;;;;;;;;;;5050730;28;20613;-57
2023/11/02 11:12:05;;;;;;;4.87;1.87;;;;;;;;;;5050518;28;20525;-57
2023/11/02 11:14:31;;;;;;;6.20;1.60;;;;;;;;;;5050492;28;20197;-57
2023/11/02 11:16:57;;;;;;;5.97;2.07;;;;;;;;;;5049538;28;20247;-57
2023/11/02 11:19:24;;;;;;;2.13;1.37;;;;;;;;;;5049528;28;20267;-57
2023/11/02 11:21:51;;;;;;;4.37;1.50;;;;;;;;;;5049776;28;20165;-58
2023/11/02 11:24:17;;;;;;;1.83;1.20;;;;;;;;;;5050002;28;20165;-57
2023/11/02 11:26:45;;;;;;;2.20;1.50;;;;;;;;;;5050633;28;20193;-57
2023/11/02 11:29:29;;;;;;;3.30;1.53;;;;;;;;;;5050026;28;20292;-58
2023/11/02 11:31:57;;;;;;;2.20;1.47;;;;;;;;;;5049034;28;20335;-58
2023/11/02 11:34:25;;;;;;;3.57;1.47;;;;;;;;;;5052952;28;20635;-63
2023/11/02 11:36:51;;;;;;;2.47;1.43;;;;;;;;;;5068206;28;20599;-58
2023/11/02 11:39:37;;;;;;;3.60;1.50;;;;;;;;;;5068309;28;20176;-58
2023/11/02 11:42:04;;;;;;;3.07;1.43;;;;;;;;;;5048565;28;20195;-57
2023/11/02 11:44:30;;;;;;;2.30;1.40;;;;;;;;;;5050072;28;20284;-58
2023/11/02 11:46:57;;;;;;;2.10;1.63;;;;;;;;;;5048811;28;20202;-57
2023/11/02 11:49:41;;;;;;;3.33;1.73;;;;;;;;;;5049739;28;20801;-57
2023/11/02 11:52:24;;;;;;;5.20;2.10;;;;;;;;;;5049082;28;20161;-57
2023/11/02 11:54:50;;;;;;;4.60;1.80;;;;;;;;;;5049406;28;20310;-58
2023/11/02 11:57:35;;;;;;;5.03;1.93;;;;;;;;;;5066120;28;20196;-58
2023/11/02 12:00:04;;;;;;;6.17;2.50;;;;;;;;;;5067569;28;20211;-58
2023/11/02 12:02:35;;;;;;;3.40;1.80;;;;;;;;;;5066876;28;20247;-58
2023/11/02 12:05:01;;;;;;;5.53;2.13;;;;;;;;;;5067557;28;20284;-55
2023/11/02 12:07:28;;;;;;;4.90;1.93;;;;;;;;;;5066871;28;20219;-55
2023/11/02 12:09:54;;;;;;;5.40;2.13;;;;;;;;;;5066261;28;20181;-55
2023/11/02 12:12:20;;;;;;;3.37;2.03;;;;;;;;;;5051268;28;20179;-56
2023/11/02 12:14:47;;;;;;;2.50;1.60;;;;;;;;;;5047050;28;20185;-55
2023/11/02 12:17:13;;;;;;;6.03;1.97;;;;;;;;;;5047804;28;20357;-55
2023/11/02 12:19:42;;;;;;;4.17;2.27;;;;;;;;;;5047676;28;20182;-56
2023/11/02 12:22:12;;;;;;;8.07;1.90;;;;;;;;;;5048605;28;20169;-56
2023/11/02 12:24:41;;;;;;;2.63;1.60;;;;;;;;;;5048919;28;20256;-55
2023/11/02 12:27:16;;;;;;;6.97;2.10;;;;;;;;;;5062096;28;20183;-55
2023/11/02 12:29:58;;;;;;;5.67;2.33;;;;;;;;;;5068750;28;20180;-55
2023/11/02 12:32:24;;;;;;;4.40;2.10;;;;;;;;;;5067526;28;20298;-55
2023/11/02 12:34:50;;;;;;;2.37;1.63;;;;;;;;;;5069321;28;20571;-55
2023/11/02 12:37:16;;;;;;;3.60;2.00;;;;;;;;;;5068138;28;20302;-55
2023/11/02 12:39:56;;;;;;;8.10;1.97;;;;;;;;;;5068585;28;20186;-55
2023/11/02 12:42:23;;;;;;;6.03;3.40;;;;;;;;;;5054366;28;20184;-56
2023/11/02 12:44:51;;;;;;;2.67;1.87;;;;;;;;;;5049115;28;20518;-55
2023/11/02 12:47:17;;;;;;;4.70;1.80;;;;;;;;;;5047740;28;20672;-56
2023/11/02 12:49:44;;;;;;;5.40;2.33;;;;;;;;;;5050605;28;20165;-55
2023/11/02 12:52:10;;;;;;;6.17;2.03;;;;;;;;;;5047857;28;20188;-56
2023/11/02 12:54:37;;;;;;;4.93;2.42;;;;;;;;;;5048239;28;20422;-55
2023/11/02 12:57:05;;;;;;;4.63;2.10;;;;;;;;;;5048049;28;20255;-56
2023/11/02 12:59:39;;;;;;;5.00;2.67;;;;;;;;;;5050811;28;20674;-57
2023/11/02 13:02:06;;;;;;;6.57;2.37;;;;;;;;;;5067930;28;20160;-55
2023/11/02 13:04:52;;;;;;;6.23;1.93;;;;;;;;;;5068837;28;20156;-55
2023/11/02 13:07:24;;;;;;;6.10;2.17;;;;;;;;;;5065848;28;20176;-55
2023/11/02 13:10:20;;;;;;;5.37;1.60;;;;;;;;;;5066368;28;20208;-55
2023/11/02 13:12:48;;;;;;;8.07;2.63;;;;;;;;;;5065257;28;20644;-56
2023/11/02 13:15:15;;;;;;;2.10;1.57;;;;;;;;;;5066109;28;20208;-56
2023/11/02 13:17:46;;;;;;;4.87;2.40;;;;;;;;;;5047449;28;20625;-56
2023/11/02 13:20:14;;;;;;;5.83;2.93;;;;;;;;;;5075082;28;20570;-56
2023/11/02 13:22:41;;;;;;;4.10;2.10;;;;;;;;;;5067514;28;20167;-58
2023/11/02 13:25:07;;;;;;;2.23;1.37;;;;;;;;;;5068155;28;20217;-57
2023/11/02 13:27:37;;;;;;;3.40;1.67;;;;;;;;;;5054380;28;20179;-56
2023/11/02 13:30:03;;;;;;;7.90;2.23;;;;;;;;;;5052130;28;20169;-57
2023/11/02 13:32:29;;;;;;;5.30;2.33;;;;;;;;;;5051101;28;20312;-56
2023/11/02 13:34:56;;;;;;;5.53;1.77;;;;;;;;;;5058794;28;20270;-56
2023/11/02 13:37:22;;;;;;;5.60;2.10;;;;;;;;;;5071094;28;20241;-57
2023/11/02 13:39:48;;;;;;;3.87;2.10;;;;;;;;;;5071968;28;20568;-56
2023/11/02 13:42:15;;;;;;;3.30;1.77;;;;;;;;;;5058443;28;20656;-56
2023/11/02 13:44:42;;;;;;;4.67;1.87;;;;;;;;;;5052006;28;20173;-56
2023/11/02 13:47:08;;;;;;;7.50;2.43;;;;;;;;;;5057321;28;20532;-56
2023/11/02 13:49:34;;;;;;;4.73;2.10;;;;;;;;;;5071878;28;20181;-56
2023/11/02 13:52:00;;;;;;;6.07;2.50;;;;;;;;;;5071310;28;20186;-56
2023/11/02 13:54:29;;;;;;;4.23;2.10;;;;;;;;;;5072209;28;20172;-56
2023/11/02 13:56:55;;;;;;;4.47;2.63;;;;;;;;;;5062883;28;20269;-55
2023/11/02 13:59:21;;;;;;;4.00;2.60;;;;;;;;;;5051317;28;20190;-55
2023/11/02 14:01:47;;;;;;;2.83;1.80;;;;;;;;;;5052594;28;20561;-57
2023/11/02 14:04:13;;;;;;;4.10;1.70;;;;;;;;;;5067591;28;20173;-57
2023/11/02 14:06:39;;;;;;;5.40;2.10;;;;;;;;;;5068712;28;20258;-57
2023/11/02 14:09:07;;;;;;;5.33;1.60;;;;;;;;;;5071506;28;20507;-57
2023/11/02 14:11:33;;;;;;;5.93;2.00;;;;;;;;;;5067757;28;20182;-56
2023/11/02 14:14:00;;;;;;;4.20;1.80;;;;;;;;;;5063097;28;20157;-56
2023/11/02 14:16:26;;;;;;;5.57;2.10;;;;;;;;;;5070858;28;20193;-56
2023/11/02 14:18:52;;;;;;;4.30;2.43;;;;;;;;;;5054908;28;20560;-56
2023/11/02 14:21:18;;;;;;;8.13;1.93;;;;;;;;;;5069831;28;20177;-58
2023/11/02 14:23:44;;;;;;;4.47;2.20;;;;;;;;;;5070954;28;20168;-56
2023/11/02 14:26:10;;;;;;;2.73;2.00;;;;;;;;;;5070828;28;20185;-56
2023/11/02 14:28:37;;;;;;;6.47;2.33;;;;;;;;;;5069752;28;20186;-55
2023/11/02 14:31:04;;;;;;;7.87;2.07;;;;;;;;;;5071264;28;20200;-57
2023/11/02 14:33:30;;;;;;;3.50;1.70;;;;;;;;;;5069852;28;20224;-56
2023/11/02 14:36:02;;;;;;;5.00;1.83;;;;;;;;;;5070958;28;20598;-56
2023/11/02 14:38:28;;;;;;;4.87;2.17;;;;;;;;;;5059656;28;20270;-56
2023/11/02 14:40:56;;;;;;;4.20;2.10;;;;;;;;;;5068947;28;20195;-56
2023/11/02 14:43:22;;;;;;;6.30;2.10;;;;;;;;;;5065633;28;20186;-55
2023/11/02 14:45:48;;;;;;;5.97;2.33;;;;;;;;;;5070677;28;20497;-55
2023/11/02 14:48:15;;;;;;;5.80;3.20;;;;;;;;;;5068047;28;20276;-55
2023/11/02 14:50:43;;;;;;;2.00;1.70;;;;;;;;;;5070596;28;20174;-55